Terminal Aerodrome Forecast
Issued by NWS Denver/Boulder, CO

Home | Current Version | Previous Version | Text Only | Print | Product List | Glossary On
Versions: 1 2 3 4 5 6 7 8 9 10 11 12 13 14 15 16 17 18 19 20 21 22 23 24 25 26 27 28 29 30 31 32 33 34 35 36 37 38 39 40 41 42 43 44 45 46 47 48 49 50
514
FTUS45 KBOU 261733
TAFDEN
TAF
KDEN 261733Z 2618/2724 08006KT P6SM SCT030 BKN060 BKN100
     FM261900 06010KT P6SM -TSRA BKN050CB OVC090
      TEMPO 2619/2621 VRB20G30KT 3SM +TSRAGR BKN030CB
     FM262200 01010KT P6SM -SHRA SCT040 OVC070
      TEMPO 2622/2702 4SM TSRA OVC030CB
     FM270200 33010KT P6SM -RA BKN012 OVC025
     FM271200 32009KT P6SM -SHRA BKN010 OVC020
     FM271500 03010KT P6SM VCSH SCT010 BKN020=

USA.gov is the U.S. government's official web portal to all federal, state and local government web resources and services.